Time;durP1;ratioP1;P1;durP2;ratioP2;P2;SDS_P1;SDS_P2;PMS_P1;PMS_P2;Temp;Humidity;BMP_temperature;BMP_pressure;BME280_temperature;BME280_humidity;BME280_pressure;Samples;Min_cycle;Max_cycle;Signal;HPM_P1;HPM_P2
2022/05/14 00:00:47;;;;;;;14.07;5.35;;;;;;;20.60;57.99;99075.88;4994114;28;20026;-48
2022/05/14 00:03:13;;;;;;;13.52;6.18;;;;;;;20.65;57.85;99076.72;5011765;28;20106;-49
2022/05/14 00:05:39;;;;;;;14.10;5.95;;;;;;;20.66;57.89;99070.31;5011570;28;20113;-49
2022/05/14 00:08:05;;;;;;;11.60;6.43;;;;;;;20.67;58.00;99073.81;4994109;28;20116;-49
2022/05/14 00:10:32;;;;;;;10.82;5.43;;;;;;;20.64;57.90;99071.63;5013099;28;20026;-49
2022/05/14 00:13:04;;;;;;;9.15;5.43;;;;;;;20.56;58.09;99072.88;4997735;28;20026;-48
2022/05/14 00:15:32;;;;;;;12.55;6.00;;;;;;;20.44;58.52;99077.59;5015409;28;20408;-49
2022/05/14 00:17:58;;;;;;;9.05;5.90;;;;;;;20.35;58.56;99075.41;4997994;28;20080;-49
2022/05/14 00:20:24;;;;;;;12.02;6.07;;;;;;;20.27;59.05;99072.41;4997486;28;20037;-49
2022/05/14 00:22:52;;;;;;;12.55;7.47;;;;;;;20.19;59.21;99071.00;4997586;28;20057;-49
2022/05/14 00:25:19;;;;;;;8.07;5.28;;;;;;;20.14;59.37;99073.63;4997443;28;20038;-49
2022/05/14 00:27:46;;;;;;;11.40;6.07;;;;;;;20.13;59.64;99080.03;5015191;28;20048;-49
2022/05/14 00:30:14;;;;;;;7.15;5.40;;;;;;;20.15;59.53;99070.72;4997425;28;20145;-49
2022/05/14 00:32:40;;;;;;;16.38;5.68;;;;;;;20.20;59.51;99079.81;4997348;28;20033;-49
2022/05/14 00:35:08;;;;;;;14.80;8.27;;;;;;;20.28;59.37;99072.16;4997411;28;20040;-49
2022/05/14 00:37:35;;;;;;;9.68;5.95;;;;;;;20.35;58.84;99067.41;5015244;28;20021;-49
2022/05/14 00:40:05;;;;;;;12.20;6.07;;;;;;;20.29;58.90;99070.31;4997239;28;20407;-49
2022/05/14 00:42:32;;;;;;;15.02;10.10;;;;;;;20.20;58.98;99077.13;5014803;28;20058;-49
2022/05/14 00:44:58;;;;;;;34.22;30.88;;;;;;;20.11;59.30;99072.28;4997063;28;20467;-49
2022/05/14 00:47:28;;;;;;;66.95;46.55;;;;;;;20.09;59.21;99073.59;4997104;28;20514;-49
2022/05/14 00:49:54;;;;;;;42.92;38.80;;;;;;;20.06;59.51;99066.09;4997110;28;20030;-49
2022/05/14 00:52:22;;;;;;;17.55;8.07;;;;;;;20.01;59.61;99066.84;4997058;28;20034;-49
2022/05/14 00:55:08;;;;;;;20.77;9.68;;;;;;;20.04;59.87;99065.53;5014423;28;20045;-48
2022/05/14 00:57:37;;;;;;;12.63;7.40;;;;;;;20.04;59.55;99065.53;4996727;28;20049;-48
2022/05/14 01:00:09;;;;;;;10.70;9.27;;;;;;;19.99;59.59;99060.97;5014567;28;20030;-49
2022/05/14 01:02:36;;;;;;;12.02;7.35;;;;;;;19.87;59.07;99063.00;4996936;28;20496;-49
2022/05/14 01:05:01;;;;;;;9.27;6.88;;;;;;;19.63;59.25;99062.47;4996763;28;20526;-49
2022/05/14 01:07:28;;;;;;;11.02;7.10;;;;;;;19.38;59.87;99062.97;4996773;28;20077;-48
2022/05/14 01:10:01;;;;;;;6.78;5.72;;;;;;;19.16;60.16;99069.13;4996746;28;20041;-49
2022/05/14 01:12:29;;;;;;;8.77;6.30;;;;;;;19.01;60.24;99066.25;4996696;28;20561;-49
2022/05/14 01:15:05;;;;;;;8.35;6.53;;;;;;;18.84;60.70;99063.63;4996653;28;20037;-49
2022/05/14 01:17:31;;;;;;;14.63;6.85;;;;;;;18.77;61.16;99061.94;4996706;28;20065;-49
2022/05/14 01:19:57;;;;;;;9.90;6.18;;;;;;;18.77;61.52;99063.75;4996466;28;20080;-49
2022/05/14 01:22:33;;;;;;;11.98;5.75;;;;;;;18.62;61.64;99066.22;4996173;28;20032;-48
2022/05/14 01:27:53;;;;;;;13.15;8.38;;;;;;;18.31;62.25;99061.25;5014090;28;20126;-49
2022/05/14 01:30:19;;;;;;;13.32;7.60;;;;;;;18.21;62.27;99058.41;5013957;28;20104;-49
2022/05/14 01:32:46;;;;;;;10.82;7.88;;;;;;;18.02;62.65;99055.16;5013951;28;20023;-49
2022/05/14 01:35:16;;;;;;;14.43;7.22;;;;;;;17.86;63.14;99058.59;5013794;28;20396;-49
2022/05/14 01:37:41;;;;;;;12.88;6.72;;;;;;;17.77;63.46;99051.00;5013828;28;20026;-48
2022/05/14 01:40:08;;;;;;;27.90;25.25;;;;;;;17.69;63.81;99054.03;4996201;28;20048;-49
2022/05/14 01:42:33;;;;;;;10.43;7.60;;;;;;;17.80;64.00;99056.88;5013775;28;20491;-48
2022/05/14 01:44:59;;;;;;;10.88;6.50;;;;;;;17.65;63.92;99060.88;4995975;28;20032;-49
2022/05/14 01:47:25;;;;;;;9.27;6.72;;;;;;;17.57;64.08;99055.94;4995968;28;20446;-49
2022/05/14 01:49:50;;;;;;;15.32;7.78;;;;;;;17.52;64.31;99053.16;5013627;28;20025;-49
2022/05/14 01:52:16;;;;;;;9.45;5.95;;;;;;;17.50;64.62;99047.28;5013522;28;20033;-49
2022/05/14 01:54:42;;;;;;;16.20;7.18;;;;;;;17.48;64.91;99046.72;5013479;28;20571;-51
2022/05/14 01:57:08;;;;;;;14.80;8.80;;;;;;;17.42;64.76;99047.69;5013438;28;20125;-52
2022/05/14 01:59:33;;;;;;;9.52;6.90;;;;;;;17.42;65.02;99042.38;5013402;28;20022;-52
2022/05/14 02:02:00;;;;;;;13.30;8.05;;;;;;;17.39;65.43;99038.34;5013317;28;20026;-51
2022/05/14 02:04:26;;;;;;;10.23;6.53;;;;;;;17.29;65.40;99036.28;5013329;28;20055;-51
2022/05/14 02:06:52;;;;;;;7.93;6.63;;;;;;;17.29;65.42;99046.91;5013185;28;20061;-51
2022/05/14 02:09:19;;;;;;;11.85;7.28;;;;;;;17.25;65.41;99037.00;5013203;28;20466;-51
2022/05/14 02:11:45;;;;;;;8.25;6.32;;;;;;;17.22;65.47;99046.22;5013221;28;20102;-51
2022/05/14 02:14:12;;;;;;;10.80;6.78;;;;;;;17.14;65.41;99044.75;4995472;28;20482;-51
2022/05/14 02:16:38;;;;;;;14.52;7.30;;;;;;;17.06;65.49;99042.44;4995437;28;20100;-51
2022/05/14 02:19:04;;;;;;;8.90;6.75;;;;;;;16.91;65.97;99048.25;4995379;28;20053;-51
2022/05/14 02:21:32;;;;;;;11.30;6.90;;;;;;;16.88;66.13;99046.06;4995337;28;20032;-51
2022/05/14 02:23:59;;;;;;;8.27;7.00;;;;;;;16.84;65.99;99047.59;5012952;28;20034;-51
2022/05/14 02:26:24;;;;;;;9.45;7.65;;;;;;;16.78;66.27;99045.81;5012840;28;20487;-52
2022/05/14 02:28:50;;;;;;;9.95;6.53;;;;;;;16.79;66.59;99044.78;4995294;28;20032;-51
2022/05/14 02:31:16;;;;;;;10.65;6.72;;;;;;;16.70;66.74;99043.50;5012771;28;20527;-51
2022/05/14 02:33:42;;;;;;;12.80;8.32;;;;;;;16.68;66.79;99042.94;4994580;28;20033;-51
2022/05/14 02:36:10;;;;;;;12.20;7.82;;;;;;;16.60;67.02;99041.44;4995125;28;20448;-51
2022/05/14 02:38:36;;;;;;;8.50;7.50;;;;;;;16.60;66.80;99045.94;5012786;28;20029;-51
2022/05/14 02:41:03;;;;;;;10.18;7.10;;;;;;;16.53;67.15;99041.56;4995024;28;20018;-52
2022/05/14 02:43:29;;;;;;;10.80;7.53;;;;;;;16.51;67.35;99045.47;4995034;28;20403;-51
2022/05/14 02:45:55;;;;;;;10.82;7.18;;;;;;;16.51;67.27;99045.47;4994899;28;20025;-51
2022/05/14 02:48:21;;;;;;;12.93;7.35;;;;;;;16.56;67.17;99051.69;5012542;28;20113;-50
2022/05/14 02:50:46;;;;;;;13.70;7.40;;;;;;;16.55;67.11;99047.44;4994923;28;20025;-50
2022/05/14 02:53:12;;;;;;;8.15;6.97;;;;;;;16.58;67.05;99046.97;5012551;28;20149;-51
2022/05/14 02:55:38;;;;;;;12.80;6.82;;;;;;;16.59;67.08;99042.47;5012226;28;20430;-51
2022/05/14 02:58:04;;;;;;;9.13;6.72;;;;;;;16.63;67.04;99048.13;5012415;28;20018;-51
2022/05/14 03:00:29;;;;;;;9.75;7.38;;;;;;;16.63;67.03;99053.44;5012477;28;20022;-51
2022/05/14 03:02:55;;;;;;;10.43;8.50;;;;;;;16.56;66.73;99042.94;5012418;28;20032;-51
2022/05/14 03:05:22;;;;;;;12.38;7.38;;;;;;;16.44;66.88;99050.88;5012263;28;20502;-51
2022/05/14 03:07:49;;;;;;;25.45;8.45;;;;;;;16.36;67.53;99059.19;4994760;28;20127;-51
2022/05/14 03:10:16;;;;;;;9.18;6.90;;;;;;;16.38;67.48;99060.56;4994586;28;20109;-51
2022/05/14 03:12:42;;;;;;;9.25;6.93;;;;;;;16.36;67.77;99057.34;4994586;28;20112;-51
2022/05/14 03:15:09;;;;;;;11.45;6.65;;;;;;;16.41;67.92;99055.84;4994563;28;20140;-51
2022/05/14 03:17:35;;;;;;;12.63;6.93;;;;;;;16.44;67.58;99058.00;5012250;28;20018;-51
2022/05/14 03:20:06;;;;;;;11.35;6.93;;;;;;;16.42;67.60;99060.91;4994447;28;20034;-51
2022/05/14 03:22:36;;;;;;;8.73;6.85;;;;;;;16.46;67.60;99053.28;4994484;28;20041;-51
2022/05/14 03:25:04;;;;;;;9.80;6.50;;;;;;;16.40;67.23;99060.34;5012024;28;20488;-52
2022/05/14 03:27:30;;;;;;;8.35;7.00;;;;;;;16.31;67.27;99061.69;4995072;28;20030;-51
2022/05/14 03:29:56;;;;;;;10.02;6.60;;;;;;;16.36;67.46;99051.22;4994368;28;20022;-51
2022/05/14 03:32:24;;;;;;;14.38;6.65;;;;;;;16.40;67.12;99062.16;5011987;28;20022;-51
2022/05/14 03:34:50;;;;;;;10.70;6.80;;;;;;;16.35;67.09;99054.91;5012012;28;20025;-51
2022/05/14 03:37:16;;;;;;;9.57;7.35;;;;;;;16.31;66.96;99061.69;5011931;28;20097;-51
2022/05/14 03:39:42;;;;;;;11.02;8.20;;;;;;;16.10;67.05;99052.47;5011959;28;20514;-51
2022/05/14 03:42:08;;;;;;;11.57;6.93;;;;;;;15.92;67.74;99053.34;5011898;28;20080;-51
2022/05/14 03:44:34;;;;;;;9.40;7.53;;;;;;;15.92;67.97;99046.19;4995870;28;20068;-51
2022/05/14 03:46:59;;;;;;;10.20;7.25;;;;;;;15.96;67.82;99052.66;5016089;28;20050;-51
2022/05/14 03:49:25;;;;;;;10.45;7.70;;;;;;;15.93;68.23;99047.00;5015929;28;20380;-51
2022/05/14 03:51:52;;;;;;;9.07;6.78;;;;;;;15.99;67.96;99054.03;4998156;28;20045;-51
2022/05/14 03:54:19;;;;;;;14.13;10.52;;;;;;;15.91;67.84;99041.13;5015509;28;20060;-50
2022/05/14 03:56:45;;;;;;;9.40;8.48;;;;;;;15.86;67.94;99054.22;4998130;28;20033;-51
2022/05/14 03:59:11;;;;;;;12.07;7.00;;;;;;;15.82;68.19;99053.06;4997992;28;20021;-51
2022/05/14 04:01:37;;;;;;;9.35;8.00;;;;;;;15.83;68.03;99060.75;5015584;28;20036;-51
2022/05/14 04:04:04;;;;;;;11.50;6.78;;;;;;;15.85;67.96;99053.41;5015582;28;20026;-51
2022/05/14 04:06:29;;;;;;;11.18;6.70;;;;;;;15.85;68.21;99053.41;5015485;28;20019;-51
2022/05/14 04:08:55;;;;;;;13.13;6.90;;;;;;;15.89;67.86;99057.22;5015461;28;20392;-52
2022/05/14 04:11:22;;;;;;;9.93;7.38;;;;;;;16.00;67.65;99060.94;4997783;28;20022;-51
2022/05/14 04:13:47;;;;;;;12.23;7.53;;;;;;;15.96;67.26;99063.22;5015476;28;20096;-51
2022/05/14 04:16:13;;;;;;;8.77;6.47;;;;;;;15.94;67.50;99065.31;4997706;28;20495;-51
2022/05/14 04:18:39;;;;;;;10.32;7.80;;;;;;;15.88;67.40;99063.56;5015319;28;20013;-51
2022/05/14 04:21:05;;;;;;;6.90;6.28;;;;;;;15.84;67.86;99062.41;4997626;28;20040;-51
2022/05/14 04:23:31;;;;;;;12.43;6.47;;;;;;;15.83;67.80;99070.56;5015280;28;20090;-51
2022/05/14 04:25:59;;;;;;;9.43;6.68;;;;;;;15.92;67.85;99062.06;5015005;28;20018;-51
2022/05/14 04:28:25;;;;;;;8.93;6.28;;;;;;;15.98;67.62;99060.38;4997614;28;20454;-52
2022/05/14 04:30:52;;;;;;;8.57;6.63;;;;;;;15.97;67.47;99069.31;5015098;28;20053;-52
2022/05/14 04:33:18;;;;;;;9.18;6.95;;;;;;;16.07;67.47;99071.44;4997483;28;20494;-51
2022/05/14 04:35:45;;;;;;;10.60;7.32;;;;;;;16.23;67.07;99064.69;5015022;28;20022;-51
2022/05/14 04:38:11;;;;;;;8.27;7.32;;;;;;;16.19;66.93;99064.31;5014980;28;20102;-51
2022/05/14 04:40:37;;;;;;;9.70;7.63;;;;;;;16.44;66.44;99068.59;4997323;28;20061;-51
2022/05/14 04:43:10;;;;;;;10.48;6.95;;;;;;;17.07;65.12;99067.94;5014850;28;20491;-51
2022/05/14 04:45:38;;;;;;;13.32;7.45;;;;;;;17.75;63.32;99071.66;5014858;28;20496;-51
2022/05/14 04:48:05;;;;;;;12.18;7.20;;;;;;;18.39;60.78;99062.69;5014804;28;20028;-51
2022/05/14 04:50:31;;;;;;;10.73;6.72;;;;;;;18.97;59.10;99076.56;5014732;28;20630;-51
2022/05/14 04:52:57;;;;;;;11.77;7.03;;;;;;;19.38;57.83;99077.09;5014727;28;20074;-51
2022/05/14 04:55:22;;;;;;;37.35;33.40;;;;;;;19.59;56.54;99066.69;5014054;28;20523;-51
2022/05/14 04:57:48;;;;;;;16.92;14.68;;;;;;;19.80;56.49;99073.03;4996641;28;20507;-51
2022/05/14 05:00:15;;;;;;;9.77;7.97;;;;;;;20.13;55.10;99077.34;5014573;28;20076;-51
2022/05/14 05:05:28;;;;;;;19.63;10.57;;;;;;;20.27;54.85;99083.88;5014456;28;20091;-51
2022/05/14 05:07:55;;;;;;;16.98;7.47;;;;;;;20.33;54.87;99077.53;5014434;28;20041;-51
2022/05/14 05:10:21;;;;;;;11.65;8.05;;;;;;;20.72;53.45;99085.28;5014406;28;20017;-51
2022/05/14 05:12:47;;;;;;;12.48;7.25;;;;;;;21.09;52.59;99081.78;4996707;28;20029;-51
2022/05/14 05:15:13;;;;;;;14.80;6.80;;;;;;;21.65;50.96;99078.56;4996603;28;20455;-51
2022/05/14 05:17:39;;;;;;;20.95;18.95;;;;;;;21.92;50.37;99082.88;5014308;28;20022;-49
2022/05/14 05:20:06;;;;;;;15.10;10.90;;;;;;;22.49;48.80;99079.16;4996557;28;20563;-49
2022/05/14 05:22:32;;;;;;;8.15;6.50;;;;;;;23.04;47.09;99075.88;4996630;28;20040;-48
2022/05/14 05:24:57;;;;;;;9.00;6.47;;;;;;;23.36;46.38;99074.69;5014027;28;20025;-49
2022/05/14 05:27:24;;;;;;;8.27;6.10;;;;;;;23.71;45.32;99079.09;5014076;28;20018;-49
2022/05/14 05:29:49;;;;;;;9.35;7.60;;;;;;;23.75;45.67;99073.97;4996353;28;20026;-49
2022/05/14 05:32:16;;;;;;;13.23;7.70;;;;;;;24.31;44.70;99066.34;5013983;28;20037;-49
2022/05/14 05:34:41;;;;;;;12.57;6.90;;;;;;;25.01;43.05;99075.06;4996327;28;20050;-49
2022/05/14 05:37:07;;;;;;;9.60;6.70;;;;;;;25.70;41.92;99071.00;5013773;28;20503;-49
2022/05/14 05:39:33;;;;;;;7.43;6.57;;;;;;;26.20;40.76;99073.25;5012563;28;20022;-49
2022/05/14 05:41:59;;;;;;;9.63;7.53;;;;;;;26.30;40.64;99073.06;4996150;28;20068;-49
2022/05/14 05:44:28;;;;;;;8.70;6.55;;;;;;;26.61;40.43;99074.47;5013695;28;20053;-49
2022/05/14 05:46:54;;;;;;;9.05;6.40;;;;;;;27.11;39.50;99074.59;4995878;28;20134;-49
2022/05/14 05:49:21;;;;;;;13.82;7.55;;;;;;;27.43;38.45;99071.00;4996064;28;20054;-49
2022/05/14 05:51:46;;;;;;;12.10;6.03;;;;;;;27.72;38.36;99069.03;4996010;28;20112;-49
2022/05/14 05:56:59;;;;;;;8.93;6.22;;;;;;;29.31;36.34;99054.19;5013539;28;20121;-49
2022/05/14 05:59:28;;;;;;;8.13;5.53;;;;;;;30.29;34.33;99060.88;5013507;28;20049;-50
2022/05/14 06:01:54;;;;;;;13.35;6.18;;;;;;;31.05;32.80;99062.88;4995772;28;20022;-50
2022/05/14 06:04:21;;;;;;;7.97;5.97;;;;;;;31.34;32.57;99055.81;5013327;28;20514;-50
2022/05/14 06:06:47;;;;;;;9.75;6.35;;;;;;;31.43;32.53;99058.47;5013139;28;20014;-49
2022/05/14 06:09:19;;;;;;;10.82;6.30;;;;;;;31.85;32.29;99069.34;4994733;28;20041;-49
2022/05/14 06:11:46;;;;;;;9.00;5.95;;;;;;;32.15;31.75;99059.19;4995626;28;20030;-49
2022/05/14 06:14:12;;;;;;;7.03;5.80;;;;;;;32.32;31.29;99057.44;5013190;28;20038;-50
2022/05/14 06:16:39;;;;;;;8.50;6.22;;;;;;;32.43;31.24;99067.50;4995517;28;20104;-49
2022/05/14 06:19:06;;;;;;;15.88;6.82;;;;;;;32.79;30.75;99057.84;5013060;28;20026;-50
2022/05/14 06:21:31;;;;;;;9.15;5.95;;;;;;;32.88;30.81;99054.22;4995541;28;20018;-50
2022/05/14 06:23:57;;;;;;;9.88;6.18;;;;;;;32.97;30.86;99052.19;5013035;28;20475;-49
2022/05/14 06:26:23;;;;;;;10.35;5.93;;;;;;;33.32;30.54;99059.88;5012916;28;20022;-48
2022/05/14 06:28:49;;;;;;;10.40;5.65;;;;;;;33.83;29.05;99066.44;5012933;28;20399;-50
2022/05/14 06:31:16;;;;;;;10.13;5.38;;;;;;;33.83;29.31;99061.00;5012930;28;20033;-49
2022/05/14 06:33:44;;;;;;;10.65;6.05;;;;;;;34.27;28.42;99063.00;5013096;28;20029;-49
2022/05/14 06:36:10;;;;;;;13.63;6.35;;;;;;;34.52;28.04;99054.66;5012778;28;20034;-49
2022/05/14 06:38:36;;;;;;;9.40;7.18;;;;;;;34.86;27.28;99053.16;5012719;28;20515;-50
2022/05/14 06:41:12;;;;;;;9.73;5.63;;;;;;;35.25;26.96;99055.22;5012635;28;20036;-50
2022/05/14 06:43:39;;;;;;;10.13;5.88;;;;;;;35.47;26.35;99061.94;5012710;28;20084;-49
2022/05/14 06:46:05;;;;;;;14.45;6.07;;;;;;;35.71;25.92;99053.47;5012576;28;20022;-50
2022/05/14 06:48:31;;;;;;;14.38;7.05;;;;;;;36.08;25.78;99053.03;4994943;28;20064;-50
2022/05/14 06:51:04;;;;;;;11.38;8.15;;;;;;;36.35;25.52;99051.19;5012508;28;20462;-49
2022/05/14 06:53:30;;;;;;;11.20;6.80;;;;;;;36.63;25.07;99054.75;5012882;28;20038;-49
2022/05/14 06:55:59;;;;;;;20.83;10.98;;;;;;;36.44;25.34;99058.34;4994572;28;20058;-50
2022/05/14 06:58:35;;;;;;;10.13;7.82;;;;;;;36.39;25.50;99057.50;5012517;28;20014;-49
2022/05/14 07:01:00;;;;;;;9.20;6.43;;;;;;;36.29;25.06;99066.28;5012417;28;20040;-49
2022/05/14 07:08:58;;;;;;;6.68;5.28;;;;;;;36.14;24.79;99076.16;5012375;28;20588;-50
2022/05/14 07:11:24;;;;;;;8.77;4.80;;;;;;;36.42;24.91;99077.84;4994566;28;20132;-49
2022/05/14 07:13:51;;;;;;;8.43;5.70;;;;;;;36.53;24.83;99081.56;4994598;28;20100;-50
2022/05/14 07:16:17;;;;;;;8.68;5.25;;;;;;;36.22;24.85;99082.56;5012184;28;20048;-50
2022/05/14 07:18:44;;;;;;;8.20;5.20;;;;;;;35.86;25.38;99078.34;5011887;28;20018;-50
2022/05/14 07:21:10;;;;;;;7.57;5.15;;;;;;;35.25;26.37;99087.97;5012147;28;20395;-50
2022/05/14 07:23:35;;;;;;;7.57;4.95;;;;;;;34.74;27.33;99088.72;4994448;28;20116;-50
2022/05/14 07:26:03;;;;;;;6.72;5.03;;;;;;;34.75;26.67;99087.56;5011967;28;20475;-50
2022/05/14 07:28:29;;;;;;;9.10;5.07;;;;;;;34.93;26.45;99088.78;5012032;28;20028;-51
2022/05/14 07:30:54;;;;;;;7.47;5.78;;;;;;;35.26;26.40;99086.84;5012018;28;20029;-51
2022/05/14 07:33:20;;;;;;;7.60;5.65;;;;;;;35.27;25.84;99091.91;5012022;28;20049;-50
2022/05/14 07:35:46;;;;;;;9.73;5.78;;;;;;;35.07;26.00;99090.25;4994302;28;20500;-50
2022/05/14 07:38:12;;;;;;;8.48;5.57;;;;;;;35.05;26.17;99095.28;5012011;28;20503;-51
2022/05/14 07:40:39;;;;;;;8.23;5.10;;;;;;;34.72;26.38;99085.53;5011926;28;20515;-50
2022/05/14 07:43:16;;;;;;;9.15;5.22;;;;;;;35.24;26.05;99094.59;5011955;28;20362;-50
2022/05/14 07:45:49;;;;;;;10.85;4.85;;;;;;;35.67;25.55;99090.84;5011875;28;20040;-51
2022/05/14 07:48:21;;;;;;;7.78;4.53;;;;;;;35.94;25.17;99077.31;5011982;28;20499;-51
2022/05/14 07:50:48;;;;;;;9.23;5.35;;;;;;;36.13;24.87;99084.72;5011910;28;20036;-50
2022/05/14 07:53:18;;;;;;;8.00;4.93;;;;;;;36.23;24.80;99097.03;5011892;28;20049;-50
2022/05/14 07:55:44;;;;;;;10.65;5.05;;;;;;;36.20;25.09;99087.59;5011593;28;20050;-50
2022/05/14 07:58:10;;;;;;;10.95;4.97;;;;;;;36.24;24.91;99090.41;5011902;28;20084;-50
2022/05/14 08:00:37;;;;;;;12.18;5.18;;;;;;;36.32;24.62;99092.09;4994161;28;20555;-50
2022/05/14 08:03:03;;;;;;;8.32;4.93;;;;;;;36.35;24.62;99086.72;4994280;28;20018;-50
2022/05/14 08:05:29;;;;;;;9.40;4.53;;;;;;;36.41;24.73;99084.47;5011650;28;20026;-50
2022/05/14 08:07:55;;;;;;;9.40;4.15;;;;;;;36.75;24.20;99085.47;5011779;28;20041;-50
2022/05/14 08:10:21;;;;;;;7.35;5.07;;;;;;;37.29;23.77;99082.75;5011678;28;20495;-50
2022/05/14 08:12:51;;;;;;;8.23;4.90;;;;;;;37.50;22.87;99074.81;4994024;28;20392;-50
2022/05/14 08:15:18;;;;;;;6.78;3.80;;;;;;;37.76;22.72;99071.25;5011692;28;20480;-49
2022/05/14 08:17:45;;;;;;;6.53;4.88;;;;;;;38.42;21.88;99070.00;5011640;28;20026;-49
2022/05/14 08:20:12;;;;;;;4.63;4.13;;;;;;;38.58;21.95;99062.31;4993948;28;20052;-51
2022/05/14 08:25:22;;;;;;;15.05;4.32;;;;;;;39.03;21.17;99057.56;5011477;28;20172;-51
2022/05/14 08:27:48;;;;;;;7.03;4.10;;;;;;;39.44;21.05;99060.16;5011541;28;20523;-51
2022/05/14 08:30:15;;;;;;;5.72;3.92;;;;;;;39.48;20.74;99062.91;5011512;28;20018;-51
2022/05/14 08:32:41;;;;;;;9.25;3.83;;;;;;;39.59;20.19;99063.75;5014615;28;20500;-50
2022/05/14 08:35:08;;;;;;;6.97;3.42;;;;;;;39.65;20.30;99064.16;5015074;28;20026;-50
2022/05/14 08:37:34;;;;;;;4.75;3.13;;;;;;;40.00;20.37;99063.50;5015636;28;20147;-50
2022/05/14 08:40:09;;;;;;;7.38;3.55;;;;;;;40.03;20.12;99064.69;5014962;28;20518;-50
2022/05/14 08:42:37;;;;;;;6.53;3.65;;;;;;;40.20;19.45;99066.66;5014998;28;20029;-50
2022/05/14 08:45:04;;;;;;;8.15;3.83;;;;;;;39.99;19.80;99061.94;5014832;28;20026;-50
2022/05/14 08:47:40;;;;;;;4.25;3.00;;;;;;;40.29;19.28;99075.34;5014823;28;20037;-50
2022/05/14 08:50:08;;;;;;;8.75;3.25;;;;;;;40.56;18.99;99060.44;5014837;28;20025;-50
2022/05/14 08:52:35;;;;;;;8.00;3.40;;;;;;;40.78;18.83;99070.28;5014874;28;20101;-51
2022/05/14 08:55:14;;;;;;;5.55;3.47;;;;;;;40.67;18.53;99064.75;5014477;28;20057;-52
2022/05/14 08:58:01;;;;;;;3.75;2.72;;;;;;;40.76;18.47;99063.59;5014727;28;20033;-52
2022/05/14 09:00:27;;;;;;;9.25;3.22;;;;;;;40.78;18.60;99058.47;4997001;28;20044;-54
2022/05/14 09:02:54;;;;;;;6.03;2.97;;;;;;;41.02;18.10;99049.38;5014585;28;20022;-53
2022/05/14 09:05:23;;;;;;;4.70;2.50;;;;;;;40.28;18.73;99056.47;5014449;28;20022;-53
2022/05/14 09:07:52;;;;;;;4.47;2.00;;;;;;;39.97;18.47;99056.03;5014504;28;20095;-53
2022/05/14 09:10:41;;;;;;;6.90;2.03;;;;;;;40.31;18.50;99048.25;4996794;28;20165;-52
2022/05/14 09:13:20;;;;;;;7.95;2.83;;;;;;;40.79;17.82;99040.78;5014457;28;20026;-53
2022/05/14 09:16:02;;;;;;;7.78;2.92;;;;;;;41.03;17.14;99042.72;5014322;28;20396;-53
2022/05/14 09:18:32;;;;;;;8.07;2.22;;;;;;;41.06;17.19;99041.91;5014308;28;20048;-52
2022/05/14 09:21:08;;;;;;;4.38;2.03;;;;;;;40.73;17.13;99043.13;4996592;28;20037;-53
2022/05/14 09:23:44;;;;;;;6.72;2.15;;;;;;;40.13;17.38;99044.69;5014192;28;20026;-53
2022/05/14 09:26:17;;;;;;;6.47;2.30;;;;;;;40.39;17.11;99039.97;4996450;28;20042;-53
2022/05/14 09:28:55;;;;;;;6.47;2.17;;;;;;;40.79;16.87;99041.56;5014049;28;20029;-52
2022/05/14 09:31:32;;;;;;;4.68;2.03;;;;;;;40.61;17.25;99038.81;5014031;28;20030;-53
2022/05/14 09:34:13;;;;;;;4.75;2.30;;;;;;;40.39;17.44;99031.72;5014047;28;20091;-53
2022/05/14 09:36:39;;;;;;;7.13;2.63;;;;;;;40.04;16.97;99038.75;5013959;28;20034;-53
2022/05/14 09:39:17;;;;;;;4.78;2.40;;;;;;;40.10;17.28;99042.69;5013903;28;20149;-53
2022/05/14 09:41:45;;;;;;;4.40;1.80;;;;;;;40.19;16.71;99037.63;4996102;28;20025;-52
2022/05/14 09:44:21;;;;;;;6.32;1.98;;;;;;;39.99;16.36;99037.19;4996133;28;20026;-53
2022/05/14 09:46:47;;;;;;;5.97;2.15;;;;;;;39.53;16.86;99040.56;5012393;28;20034;-53
2022/05/14 09:49:24;;;;;;;8.40;2.50;;;;;;;39.75;17.48;99033.19;5013732;28;20577;-53
2022/05/14 09:52:02;;;;;;;4.32;1.80;;;;;;;40.31;17.30;99033.72;4996022;28;20029;-53
2022/05/14 09:54:46;;;;;;;9.93;2.53;;;;;;;40.43;17.19;99024.25;5013361;28;20069;-53
2022/05/14 09:57:49;;;;;;;4.75;1.98;;;;;;;40.02;17.79;99028.16;5013515;28;20092;-53
2022/05/14 10:00:38;;;;;;;3.92;2.00;;;;;;;39.67;17.62;99029.63;5013416;28;20064;-53
2022/05/14 10:03:27;;;;;;;5.50;3.42;;;;;;;39.85;18.02;99024.19;5013427;28;20040;-53
2022/05/14 10:06:08;;;;;;;8.90;2.47;;;;;;;39.86;17.64;99017.53;5013396;28;20399;-53
2022/05/14 10:09:04;;;;;;;9.43;2.30;;;;;;;40.24;17.12;99022.69;5013310;28;20033;-53
2022/05/14 10:11:37;;;;;;;7.72;2.22;;;;;;;40.43;17.19;99013.25;4995670;28;20034;-53
2022/05/14 10:14:27;;;;;;;5.35;2.10;;;;;;;40.64;16.63;99020.72;5013330;28;20041;-53
2022/05/14 10:17:01;;;;;;;5.50;2.00;;;;;;;40.44;16.75;99023.88;5013169;28;20045;-53
2022/05/14 10:19:58;;;;;;;4.28;1.95;;;;;;;40.16;16.81;99023.84;5013149;28;20084;-53
2022/05/14 10:29:04;;;;;;;6.68;1.83;;;;;;;39.55;17.91;99016.25;5013600;28;20045;-53
2022/05/14 10:31:36;;;;;;;6.45;2.35;;;;;;;39.87;17.64;99010.84;5012923;28;20041;-52
2022/05/14 10:34:08;;;;;;;4.97;1.73;;;;;;;39.83;17.38;99007.28;5012938;28;20026;-53
2022/05/14 10:36:44;;;;;;;4.68;2.10;;;;;;;40.27;17.24;99000.69;4995173;28;20052;-53
2022/05/14 10:39:34;;;;;;;5.85;2.10;;;;;;;40.46;16.73;99004.22;4995219;28;20408;-53
2022/05/14 10:42:18;;;;;;;5.15;2.00;;;;;;;40.46;16.61;98990.47;5012791;28;20095;-53
2022/05/14 10:44:53;;;;;;;3.45;1.80;;;;;;;40.26;17.02;98993.59;5012833;28;20026;-52
2022/05/14 10:47:20;;;;;;;4.50;1.80;;;;;;;40.38;16.63;98988.91;5012542;28;20025;-53
2022/05/14 10:49:53;;;;;;;5.72;1.77;;;;;;;40.59;16.32;98988.91;5012683;28;20117;-53
2022/05/14 10:52:19;;;;;;;4.05;2.15;;;;;;;40.66;16.02;98980.63;5012517;28;20042;-53
2022/05/14 10:54:45;;;;;;;3.70;1.85;;;;;;;40.78;16.18;98978.66;5011808;28;20045;-53
2022/05/14 10:57:14;;;;;;;3.70;1.90;;;;;;;40.66;16.46;98977.88;5012491;28;20438;-53
2022/05/14 10:59:44;;;;;;;4.35;1.67;;;;;;;40.67;15.99;98973.13;5012484;28;20506;-53
2022/05/14 11:02:22;;;;;;;4.60;1.55;;;;;;;40.81;16.27;98973.16;5012434;28;20037;-54
2022/05/14 11:04:51;;;;;;;5.60;1.60;;;;;;;40.55;16.06;98971.63;4994806;28;20037;-53
2022/05/14 11:07:36;;;;;;;4.70;1.73;;;;;;;40.24;16.49;98971.19;5012281;28;20090;-53
2022/05/14 11:10:12;;;;;;;5.88;1.92;;;;;;;40.14;16.39;98969.25;4994683;28;20029;-54
2022/05/14 11:12:39;;;;;;;4.65;2.00;;;;;;;40.19;16.07;98971.63;5012325;28;20038;-53
2022/05/14 11:15:28;;;;;;;4.10;2.42;;;;;;;40.09;16.73;98964.94;4994576;28;20033;-53
2022/05/14 11:18:07;;;;;;;4.28;1.98;;;;;;;39.91;16.33;98964.16;5012328;28;20033;-52
2022/05/14 11:20:32;;;;;;;5.43;2.20;;;;;;;39.85;16.30;98962.94;4994487;28;20117;-52
2022/05/14 11:23:11;;;;;;;3.88;1.75;;;;;;;39.65;16.52;98959.75;4978423;28;20050;-53
2022/05/14 11:25:38;;;;;;;4.40;1.88;;;;;;;39.68;16.47;98953.47;4994436;28;20029;-53
2022/05/14 11:28:19;;;;;;;3.97;1.60;;;;;;;39.52;16.68;98957.38;5012079;28;20026;-53
2022/05/14 11:30:44;;;;;;;4.95;1.83;;;;;;;39.08;16.76;98961.13;4994492;28;20038;-53
2022/05/14 11:33:28;;;;;;;4.53;2.00;;;;;;;39.32;17.05;98953.34;5012017;28;20492;-53
2022/05/14 11:35:58;;;;;;;8.77;2.10;;;;;;;39.57;16.55;98927.97;5011911;28;20508;-53
2022/05/14 11:38:24;;;;;;;5.07;1.85;;;;;;;39.55;16.20;98942.84;4994345;28;20096;-53
2022/05/14 11:41:01;;;;;;;3.53;1.40;;;;;;;39.54;16.06;98937.75;4994241;28;20443;-53
2022/05/14 11:43:36;;;;;;;3.85;1.75;;;;;;;39.29;16.83;98938.44;5011967;28;20014;-53
2022/05/14 11:46:27;;;;;;;5.60;2.67;;;;;;;38.93;16.64;98932.00;5011882;28;20484;-53
2022/05/14 11:48:55;;;;;;;5.85;2.03;;;;;;;39.07;16.81;98939.53;5012017;28;20030;-53
2022/05/14 11:51:42;;;;;;;4.35;1.90;;;;;;;39.35;16.53;98936.13;5011847;28;20033;-53
2022/05/14 11:54:15;;;;;;;4.00;1.95;;;;;;;39.31;16.94;98936.09;5011569;28;20142;-53
2022/05/14 11:56:53;;;;;;;4.10;1.58;;;;;;;39.06;16.98;98933.28;5012057;28;20030;-53
2022/05/14 11:59:31;;;;;;;4.80;1.70;;;;;;;38.93;17.00;98932.00;5011826;28;20144;-53
2022/05/14 12:02:01;;;;;;;5.00;1.80;;;;;;;39.09;16.75;98928.97;4994216;28;20564;-53